createdAt,value
2023-03-17T00:53:41.013Z,0.30
2023-03-17T00:58:45.528Z,0.30
2023-03-17T01:03:48.037Z,0.20
2023-03-17T01:08:52.232Z,0.20
2023-03-17T01:13:54.785Z,0.20
2023-03-17T01:19:00.132Z,0.20
2023-03-17T01:24:06.188Z,0.30
2023-03-17T01:29:08.815Z,0.40
2023-03-17T01:34:14.153Z,0.30
2023-03-17T01:39:19.557Z,0.40
2023-03-17T01:44:22.573Z,0.40
2023-03-17T01:49:32.439Z,0.50
2023-03-17T01:54:44.664Z,0.60
2023-03-17T01:59:52.001Z,0.50
2023-03-17T02:04:55.386Z,0.40
2023-03-17T02:10:00.340Z,0.50
2023-03-17T02:15:03.219Z,0.40
2023-03-17T02:21:19.869Z,0.40
2023-03-17T02:26:26.769Z,0.50
2023-03-17T02:31:29.754Z,0.50
2023-03-17T02:36:32.298Z,0.50
2023-03-17T02:41:36.790Z,0.60
2023-03-17T02:46:39.237Z,0.60
2023-03-17T02:51:41.737Z,0.60
2023-03-17T02:56:48.257Z,0.70
2023-03-17T03:01:50.961Z,0.70
2023-03-17T03:06:53.939Z,0.70
2023-03-17T03:11:57.948Z,0.70
2023-03-17T03:17:00.783Z,0.80
2023-03-17T03:22:06.409Z,0.80
2023-03-17T03:27:10.944Z,0.80
2023-03-17T03:32:13.799Z,0.80
2023-03-17T03:37:16.360Z,0.80
2023-03-17T03:42:22.991Z,0.80
2023-03-17T03:47:25.588Z,1.00
2023-03-17T03:52:28.113Z,1.00
2023-03-17T03:57:32.119Z,1.10
2023-03-17T04:02:34.978Z,1.20
2023-03-17T04:07:37.471Z,1.10
2023-03-17T04:12:44.994Z,1.20
2023-03-17T04:17:47.900Z,1.00
2023-03-17T04:22:50.385Z,1.00
2023-03-17T04:27:54.435Z,1.10
2023-03-17T04:32:56.923Z,1.10
2023-03-17T04:37:59.345Z,1.20
2023-03-17T04:43:03.689Z,1.20
2023-03-17T04:48:06.520Z,1.20
2023-03-17T04:53:09.221Z,1.20
2023-03-17T04:58:21.106Z,1.30
2023-03-17T05:03:31.394Z,1.30
2023-03-17T05:08:33.957Z,1.30
2023-03-17T05:13:37.956Z,1.30
2023-03-17T05:18:43.211Z,1.30
2023-03-17T05:23:45.673Z,1.40
2023-03-17T05:28:52.750Z,1.40
2023-03-17T05:33:55.283Z,1.50
2023-03-17T05:38:58.026Z,1.60
2023-03-17T05:44:02.048Z,1.70
2023-03-17T05:49:04.690Z,1.80
2023-03-17T05:54:07.508Z,1.90
2023-03-17T05:59:14.724Z,2.00
2023-03-17T06:05:06.750Z,2.10
2023-03-17T06:11:07.896Z,2.20
2023-03-17T06:16:42.528Z,2.30
2023-03-17T06:22:00.645Z,2.40
2023-03-17T06:27:06.366Z,2.40
2023-03-17T06:32:20.343Z,2.60
2023-03-17T06:37:24.204Z,2.60
2023-03-17T06:42:29.327Z,2.60
2023-03-17T06:47:34.179Z,2.70
2023-03-17T06:52:37.602Z,2.70
2023-03-17T06:57:42.545Z,2.70
2023-03-17T07:02:47.034Z,2.70
2023-03-17T07:07:49.728Z,2.80
2023-03-17T07:12:52.564Z,2.80
2023-03-17T07:17:56.676Z,2.90
2023-03-17T07:23:01.270Z,3.00
2023-03-17T07:28:06.967Z,3.10
2023-03-17T07:33:11.013Z,3.20
2023-03-17T07:38:13.778Z,3.30
2023-03-17T07:43:17.613Z,3.40
2023-03-17T07:48:24.169Z,3.50
2023-03-17T07:53:28.076Z,3.70
2023-03-17T07:58:30.884Z,3.80
2023-03-17T08:03:39.297Z,4.00
2023-03-17T08:08:44.338Z,4.30
2023-03-17T08:13:47.885Z,4.40
2023-03-17T08:18:54.959Z,4.30
2023-03-17T08:24:00.709Z,4.40
2023-03-17T08:29:05.060Z,4.50
2023-03-17T08:34:12.892Z,4.60
2023-03-17T08:39:16.562Z,4.80
2023-03-17T08:44:21.133Z,5.10
2023-03-17T08:50:23.298Z,5.20
2023-03-17T08:55:30.854Z,5.30
2023-03-17T09:00:37.864Z,5.40
2023-03-17T09:05:43.328Z,5.50
2023-03-17T09:10:47.659Z,5.60
2023-03-17T09:15:52.209Z,5.70
2023-03-17T09:20:57.285Z,5.90
2023-03-17T09:26:03.433Z,6.10
2023-03-17T09:31:07.966Z,6.10
2023-03-17T09:36:12.570Z,6.30
2023-03-17T09:41:51.167Z,6.50
2023-03-17T09:47:18.942Z,6.50
2023-03-17T09:52:29.839Z,6.60
2023-03-17T09:57:37.625Z,6.80
2023-03-17T10:02:41.227Z,6.80
2023-03-17T10:08:03.531Z,6.90
2023-03-17T10:13:36.636Z,7.00
2023-03-17T10:18:47.204Z,6.90
2023-03-17T10:23:54.131Z,6.90
2023-03-17T10:28:59.370Z,7.10
2023-03-17T10:34:16.949Z,7.30
2023-03-17T10:39:25.686Z,7.30
2023-03-17T10:44:45.094Z,7.40
2023-03-17T10:50:39.692Z,7.50
2023-03-17T11:03:19.306Z,7.70
2023-03-17T11:08:38.440Z,7.90
2023-03-17T11:13:46.211Z,7.90
2023-03-17T11:19:01.527Z,8.10
2023-03-17T11:24:12.291Z,8.10
2023-03-17T11:29:28.974Z,8.20
2023-03-17T11:34:58.107Z,8.30
2023-03-17T11:40:18.617Z,8.30
2023-03-17T11:45:29.099Z,8.30
2023-03-17T11:50:40.974Z,8.50
2023-03-17T11:55:49.011Z,8.50
2023-03-17T12:00:58.789Z,8.60
2023-03-17T12:06:09.872Z,8.60
2023-03-17T12:11:18.209Z,8.70
2023-03-17T12:16:31.797Z,8.70
2023-03-17T12:21:44.946Z,8.80
2023-03-17T12:26:59.055Z,8.90
2023-03-17T12:32:08.048Z,9.00
2023-03-17T12:37:16.033Z,9.10
2023-03-17T12:42:46.450Z,9.20
2023-03-17T12:48:24.964Z,9.20
2023-03-17T12:53:32.446Z,9.20
2023-03-17T12:58:40.262Z,9.30
2023-03-17T13:04:02.139Z,9.30
2023-03-17T13:09:47.191Z,9.30
2023-03-17T13:15:00.641Z,9.20
2023-03-17T13:20:18.534Z,9.10
2023-03-17T13:25:33.912Z,9.20
2023-03-17T13:31:11.984Z,9.30
2023-03-17T13:36:46.449Z,9.30
2023-03-17T13:42:18.723Z,9.30
2023-03-17T13:47:35.098Z,9.20
2023-03-17T13:52:48.398Z,9.10
2023-03-17T13:58:22.194Z,9.00
2023-03-17T14:03:36.227Z,9.30
2023-03-17T14:08:49.271Z,9.50
2023-03-17T14:14:29.646Z,9.50
2023-03-17T14:19:34.029Z,9.30
2023-03-17T14:24:36.851Z,9.20
2023-03-17T14:29:41.510Z,9.20
2023-03-17T14:34:53.283Z,9.10
2023-03-17T14:39:58.217Z,9.10
2023-03-17T14:45:05.795Z,8.90
2023-03-17T14:50:17.998Z,9.00
2023-03-17T14:55:21.219Z,9.10
2023-03-17T15:00:35.690Z,9.20
2023-03-17T15:05:41.536Z,9.40
2023-03-17T15:10:44.298Z,9.70
2023-03-17T15:15:48.355Z,9.50
2023-03-17T15:20:50.912Z,9.20
2023-03-17T15:25:57.331Z,9.00
2023-03-17T15:31:13.526Z,8.90
2023-03-17T15:36:33.528Z,8.90
2023-03-17T15:41:36.115Z,8.80
2023-03-17T15:46:40.158Z,8.80
2023-03-17T15:51:42.644Z,8.80
2023-03-17T15:56:45.263Z,8.80
2023-03-17T16:01:49.286Z,8.70
2023-03-17T16:06:52.005Z,8.70
2023-03-17T16:11:54.764Z,8.70
2023-03-17T16:16:58.879Z,8.60
2023-03-17T16:22:01.520Z,8.50
2023-03-17T16:27:14.414Z,8.50
2023-03-17T16:32:18.788Z,8.40
2023-03-17T16:37:21.259Z,8.30
2023-03-17T16:42:24.870Z,8.20
2023-03-17T16:47:28.763Z,8.10
2023-03-17T16:52:31.313Z,8.00
2023-03-17T16:57:34.060Z,7.90
2023-03-17T17:02:38.068Z,7.80
2023-03-17T17:07:40.719Z,7.80
2023-03-17T17:12:43.236Z,7.70
2023-03-17T17:17:50.349Z,7.60
2023-03-17T17:22:52.747Z,7.50
2023-03-17T17:27:56.568Z,7.40
2023-03-17T17:33:01.726Z,7.40
2023-03-17T17:38:05.019Z,7.40
2023-03-17T17:43:08.993Z,7.30
2023-03-17T17:48:13.277Z,7.30
2023-03-17T17:53:15.749Z,7.20
2023-03-17T17:58:21.609Z,7.20
2023-03-17T18:03:26.441Z,7.10
2023-03-17T18:08:29.015Z,7.10
2023-03-17T18:13:32.330Z,7.00
2023-03-17T18:18:36.406Z,6.90
2023-03-17T18:23:39.519Z,6.80
2023-03-17T18:28:42.392Z,6.80
2023-03-17T18:33:49.132Z,6.80
2023-03-17T18:38:51.751Z,6.70
2023-03-17T18:43:54.144Z,6.50
2023-03-17T18:48:57.991Z,6.60
2023-03-17T18:54:00.787Z,6.60
2023-03-17T18:59:03.320Z,6.60
2023-03-17T19:04:07.740Z,6.60
2023-03-17T19:09:10.883Z,6.50
2023-03-17T19:14:13.267Z,6.50
2023-03-17T19:19:17.046Z,6.50
2023-03-17T19:24:19.522Z,6.50
2023-03-17T19:29:21.926Z,6.40
2023-03-17T19:34:25.763Z,6.40
2023-03-17T19:39:28.232Z,6.40
2023-03-17T19:44:30.586Z,6.40
2023-03-17T19:49:34.452Z,6.30
2023-03-17T19:54:37.546Z,6.30
2023-03-17T19:59:40.465Z,6.20
2023-03-17T20:04:44.729Z,6.20
2023-03-17T20:09:47.218Z,6.20
2023-03-17T20:14:49.757Z,6.10
2023-03-17T20:19:53.979Z,6.10
2023-03-17T20:24:56.410Z,6.10
2023-03-17T20:29:59.312Z,6.10
2023-03-17T20:35:06.133Z,6.10
2023-03-17T20:40:12.062Z,6.10
2023-03-17T20:45:14.770Z,6.00
2023-03-17T20:50:22.416Z,6.10
2023-03-17T20:55:24.790Z,6.00
2023-03-17T21:00:27.989Z,5.90
2023-03-17T21:05:32.633Z,5.90
2023-03-17T21:10:35.368Z,5.90
2023-03-17T21:15:37.964Z,5.90
2023-03-17T21:20:41.796Z,5.90
2023-03-17T21:25:44.188Z,5.90
2023-03-17T21:30:46.548Z,5.80
2023-03-17T21:35:50.645Z,5.90
2023-03-17T21:40:53.709Z,5.80
2023-03-17T21:45:56.963Z,5.80
2023-03-17T21:51:01.013Z,5.80
2023-03-17T21:56:03.623Z,5.80
2023-03-17T22:01:06.595Z,5.80
2023-03-17T22:06:11.757Z,5.80
2023-03-17T22:11:17.589Z,5.80
2023-03-17T22:16:20.173Z,5.80
2023-03-17T22:21:24.432Z,5.70
2023-03-17T22:26:26.883Z,5.70
2023-03-17T22:31:30.182Z,5.70
2023-03-17T22:36:37.298Z,5.60
2023-03-17T22:41:39.713Z,5.60
2023-03-17T22:46:42.123Z,5.60
2023-03-17T22:51:45.960Z,5.60
2023-03-17T22:56:51.140Z,5.60
2023-03-17T23:01:53.543Z,5.70
2023-03-17T23:06:57.317Z,5.60
2023-03-17T23:12:02.292Z,5.50
2023-03-17T23:17:05.787Z,5.60
2023-03-17T23:22:09.730Z,5.60
2023-03-17T23:27:15.016Z,5.60
2023-03-17T23:32:17.432Z,5.60
2023-03-17T23:37:21.200Z,5.60
2023-03-17T23:42:23.556Z,5.60
2023-03-17T23:47:26.169Z,5.50
2023-03-17T23:52:30.165Z,5.50
2023-03-17T23:57:32.852Z,5.50
